Huron, SD

9:33 AM CST on December 26, 2014 (GMT -0600)
Huron Regional | Change Station
CLOSE
Current Station
Airport
Location: Huron,
Elevation: 1289 ft
Nearby Weather Stations

Elev 1289 ft 44.39 °N, 98.23 °W | Updated 20 minutes ago

Mostly Cloudy
Mostly Cloudy
23 °F
Feels Like 11 °F
N
13
Wind Variable Wind from North

Today
High -- | Low -- °F
--% Chance of Precip.
Yesterday
High -- | Low -- °F
Precip. -- in
8:07 AM 4:59 PM
Waxing Crescent, 26% visible
Pressure 30.10 in
Visibility 10.0 miles
Clouds Mostly Cloudy 1600 ft
Windchill 11 °F
Dew Point 18 °F
Humidity 81%
Rainfall 0.01 in
Snow Depth Not available.
UV 0 out of 12
Pollen .10 out of 12
Air Quality Not available.
Flu Activity Not available.
SPECI KHON 261513Z AUTO 01011KT 10SM BKN016 M05/M08 A3010 RMK AO2 T10501078

More Conditions Fewer Conditions

Pressure 30.10 in
Visibility 10.0 miles
Clouds Mostly Cloudy 1600 ft
Windchill 11 °F
Dew Point 18 °F
Humidity 81%
Rainfall 0.01 in
Snow Depth Not available.
UV 0 out of 12
Pollen .10 out of 12
Air Quality Not available.
Flu Activity Not available.
SPECI KHON 261513Z AUTO 01011KT 10SM BKN016 M05/M08 A3010 RMK AO2 T10501078

More Conditions Fewer Conditions

10-Day Weather Forecast

Almanac

Astronomy

Dec. 26, 2014 Rise Set
Actual Time
Civil Twilight
Nautical Twilight
Astronomical Twilight
Moon
Length of Visible Light
Length of Day
Tomorrow will be .
, % of the Moon is Illuminated

Today's Extremes

State Highs State Lows

Community

WunderPhotos

Upload Photos

1,780,608 photos uploaded!

WunderBlogs® & News

Nearby

Air Quality

  Air Quality AQ Index Pollutant
Not available.

Snow Depth

Station Depth Elevation

Earthquake Activity

City Distance Mag. Time & Date
Minimum magnitude displayed is 2.5.

Coastal Water Temperatures

Place Temperature

Nearby Weather Stations